sensor_id;sensor_type;location;lat;lon;timestamp;pressure;altitude;pressure_sealevel;temperature;humidity
31357;BME280;60001;48.404;11.738;2023-05-10T00:01:15;95659.34;;;16.29;79.40
31357;BME280;60001;48.404;11.738;2023-05-10T00:02:46;95667.50;;;16.33;79.18
31357;BME280;60001;48.404;11.738;2023-05-10T00:04:18;95660.13;;;16.30;79.70
31357;BME280;60001;48.404;11.738;2023-05-10T00:05:50;95664.72;;;16.15;80.31
31357;BME280;60001;48.404;11.738;2023-05-10T00:07:22;95661.72;;;16.08;80.98
31357;BME280;60001;48.404;11.738;2023-05-10T00:08:55;95661.22;;;16.06;80.60
31357;BME280;60001;48.404;11.738;2023-05-10T00:10:26;95673.81;;;16.14;81.26
31357;BME280;60001;48.404;11.738;2023-05-10T00:11:58;95656.28;;;16.13;81.01
31357;BME280;60001;48.404;11.738;2023-05-10T00:13:31;95675.97;;;16.12;81.07
31357;BME280;60001;48.404;11.738;2023-05-10T00:15:04;95674.00;;;16.18;81.67
31357;BME280;60001;48.404;11.738;2023-05-10T00:16:34;95675.88;;;16.17;81.25
31357;BME280;60001;48.404;11.738;2023-05-10T00:18:06;95669.66;;;16.22;81.35
31357;BME280;60001;48.404;11.738;2023-05-10T00:19:38;95673.31;;;16.12;81.99
31357;BME280;60001;48.404;11.738;2023-05-10T00:21:10;95661.47;;;16.18;81.60
31357;BME280;60001;48.404;11.738;2023-05-10T00:22:41;95672.00;;;16.24;81.97
31357;BME280;60001;48.404;11.738;2023-05-10T00:24:15;95663.34;;;16.18;81.81
31357;BME280;60001;48.404;11.738;2023-05-10T00:25:46;95669.75;;;16.17;81.84
31357;BME280;60001;48.404;11.738;2023-05-10T00:27:18;95660.34;;;16.20;82.18
31357;BME280;60001;48.404;11.738;2023-05-10T00:28:49;95670.91;;;16.25;81.51
31357;BME280;60001;48.404;11.738;2023-05-10T00:30:20;95669.81;;;16.26;81.53
31357;BME280;60001;48.404;11.738;2023-05-10T00:31:52;95656.63;;;16.21;81.09
31357;BME280;60001;48.404;11.738;2023-05-10T00:33:24;95663.69;;;16.25;82.01
31357;BME280;60001;48.404;11.738;2023-05-10T00:34:55;95669.22;;;16.06;82.12
31357;BME280;60001;48.404;11.738;2023-05-10T00:36:26;95669.09;;;16.11;82.43
31357;BME280;60001;48.404;11.738;2023-05-10T00:37:58;95663.28;;;16.09;82.35
31357;BME280;60001;48.404;11.738;2023-05-10T00:39:31;95653.81;;;16.03;83.03
31357;BME280;60001;48.404;11.738;2023-05-10T00:41:03;95668.91;;;16.08;83.23
31357;BME280;60001;48.404;11.738;2023-05-10T00:42:35;95676.59;;;16.09;83.43
31357;BME280;60001;48.404;11.738;2023-05-10T00:44:07;95667.34;;;16.07;83.24
31357;BME280;60001;48.404;11.738;2023-05-10T00:45:40;95666.72;;;16.10;83.89
31357;BME280;60001;48.404;11.738;2023-05-10T00:47:12;95659.16;;;16.03;83.30
31357;BME280;60001;48.404;11.738;2023-05-10T00:48:44;95655.69;;;16.03;83.80
31357;BME280;60001;48.404;11.738;2023-05-10T00:50:16;95662.59;;;16.04;84.27
31357;BME280;60001;48.404;11.738;2023-05-10T00:51:49;95655.59;;;16.08;84.00
31357;BME280;60001;48.404;11.738;2023-05-10T00:53:21;95662.19;;;16.10;83.61
31357;BME280;60001;48.404;11.738;2023-05-10T00:54:54;95654.81;;;16.07;83.62
31357;BME280;60001;48.404;11.738;2023-05-10T00:56:26;95663.38;;;16.04;83.71
31357;BME280;60001;48.404;11.738;2023-05-10T00:57:58;95663.69;;;16.03;83.75
31357;BME280;60001;48.404;11.738;2023-05-10T00:59:31;95657.88;;;16.01;84.31
31357;BME280;60001;48.404;11.738;2023-05-10T01:01:02;95654.25;;;15.97;84.71
31357;BME280;60001;48.404;11.738;2023-05-10T01:02:35;95660.03;;;15.99;84.37
31357;BME280;60001;48.404;11.738;2023-05-10T01:04:07;95648.84;;;15.88;84.36
31357;BME280;60001;48.404;11.738;2023-05-10T01:05:39;95663.94;;;15.93;84.41
31357;BME280;60001;48.404;11.738;2023-05-10T01:07:11;95657.38;;;15.99;84.64
31357;BME280;60001;48.404;11.738;2023-05-10T01:08:43;95654.44;;;16.00;83.91
31357;BME280;60001;48.404;11.738;2023-05-10T01:10:16;95655.50;;;15.99;84.63
31357;BME280;60001;48.404;11.738;2023-05-10T01:11:49;95654.25;;;15.97;84.72
31357;BME280;60001;48.404;11.738;2023-05-10T01:13:33;95652.19;;;15.94;84.33
31357;BME280;60001;48.404;11.738;2023-05-10T01:15:08;95651.88;;;15.95;84.60
31357;BME280;60001;48.404;11.738;2023-05-10T01:16:43;95622.28;;;15.74;84.47
31357;BME280;60001;48.404;11.738;2023-05-10T01:18:20;95649.41;;;15.99;84.13
31357;BME280;60001;48.404;11.738;2023-05-10T01:19:52;95652.66;;;15.96;84.48
31357;BME280;60001;48.404;11.738;2023-05-10T01:21:35;95651.47;;;16.02;83.91
31357;BME280;60001;48.404;11.738;2023-05-10T01:23:42;95654.44;;;16.00;84.28
31357;BME280;60001;48.404;11.738;2023-05-10T01:25:37;95655.59;;;16.08;84.21
31357;BME280;60001;48.404;11.738;2023-05-10T01:27:25;95653.72;;;16.08;83.84
31357;BME280;60001;48.404;11.738;2023-05-10T01:29:59;95656.69;;;16.07;84.44
31357;BME280;60001;48.404;11.738;2023-05-10T01:33:41;95654.72;;;15.99;84.77
31357;BME280;60001;48.404;11.738;2023-05-10T01:35:18;95621.06;;;15.80;84.30
31357;BME280;60001;48.404;11.738;2023-05-10T01:36:59;95651.78;;;16.00;83.92
31357;BME280;60001;48.404;11.738;2023-05-10T01:38:42;95646.38;;;15.92;83.96
31357;BME280;60001;48.404;11.738;2023-05-10T01:40:21;95648.75;;;15.93;84.32
31357;BME280;60001;48.404;11.738;2023-05-10T01:42:04;95645.94;;;15.98;84.19
31357;BME280;60001;48.404;11.738;2023-05-10T01:43:47;95655.22;;;16.01;83.70
31357;BME280;60001;48.404;11.738;2023-05-10T01:45:26;95645.88;;;15.89;84.70
31357;BME280;60001;48.404;11.738;2023-05-10T01:47:05;95636.44;;;15.83;84.75
31357;BME280;60001;48.404;11.738;2023-05-10T01:48:47;95638.03;;;15.71;84.86
31357;BME280;60001;48.404;11.738;2023-05-10T01:50:24;95650.13;;;15.90;84.60
31357;BME280;60001;48.404;11.738;2023-05-10T01:52:03;95640.97;;;15.83;84.74
31357;BME280;60001;48.404;11.738;2023-05-10T01:53:40;95654.25;;;15.97;84.40
31357;BME280;60001;48.404;11.738;2023-05-10T01:55:16;95649.41;;;15.99;84.69
31357;BME280;60001;48.404;11.738;2023-05-10T01:56:55;95645.31;;;15.93;84.79
31357;BME280;60001;48.404;11.738;2023-05-10T01:58:31;95628.06;;;15.76;85.09
31357;BME280;60001;48.404;11.738;2023-05-10T02:00:05;95638.00;;;15.84;85.09
31357;BME280;60001;48.404;11.738;2023-05-10T02:01:38;95654.34;;;15.92;84.92
31357;BME280;60001;48.404;11.738;2023-05-10T02:03:13;95653.91;;;15.76;84.95
31357;BME280;60001;48.404;11.738;2023-05-10T02:04:49;95650.28;;;15.72;85.56
31357;BME280;60001;48.404;11.738;2023-05-10T02:06:25;95615.00;;;15.52;85.91
31357;BME280;60001;48.404;11.738;2023-05-10T02:07:58;95645.91;;;15.76;85.53
31357;BME280;60001;48.404;11.738;2023-05-10T02:09:33;95657.25;;;15.81;85.12
31357;BME280;60001;48.404;11.738;2023-05-10T02:11:05;95652.81;;;15.77;85.67
31357;BME280;60001;48.404;11.738;2023-05-10T02:12:41;95657.06;;;15.78;85.95
31357;BME280;60001;48.404;11.738;2023-05-10T02:14:15;95647.19;;;15.78;85.44
31357;BME280;60001;48.404;11.738;2023-05-10T02:15:49;95638.72;;;15.76;85.36
31357;BME280;60001;48.404;11.738;2023-05-10T02:17:24;95655.28;;;15.87;85.20
31357;BME280;60001;48.404;11.738;2023-05-10T02:18:59;95654.75;;;15.85;85.20
31357;BME280;60001;48.404;11.738;2023-05-10T02:20:35;95646.13;;;15.79;85.35
31357;BME280;60001;48.404;11.738;2023-05-10T02:22:09;95653.41;;;15.87;85.14
31357;BME280;60001;48.404;11.738;2023-05-10T02:23:43;95658.53;;;15.84;85.08
31357;BME280;60001;48.404;11.738;2023-05-10T02:25:15;95661.69;;;15.86;85.21
31357;BME280;60001;48.404;11.738;2023-05-10T02:26:51;95612.53;;;15.56;85.86
31357;BME280;60001;48.404;11.738;2023-05-10T02:28:27;95650.84;;;15.82;85.51
31357;BME280;60001;48.404;11.738;2023-05-10T02:30:00;95656.94;;;15.83;85.44
31357;BME280;60001;48.404;11.738;2023-05-10T02:31:33;95634.81;;;15.74;85.17
31357;BME280;60001;48.404;11.738;2023-05-10T02:33:06;95652.41;;;15.83;84.96
31357;BME280;60001;48.404;11.738;2023-05-10T02:34:39;95638.34;;;15.69;84.88
31357;BME280;60001;48.404;11.738;2023-05-10T02:36:16;95653.44;;;15.74;85.09
31357;BME280;60001;48.404;11.738;2023-05-10T02:37:48;95655.63;;;15.72;85.65
31357;BME280;60001;48.404;11.738;2023-05-10T02:39:22;95637.47;;;15.60;85.78
31357;BME280;60001;48.404;11.738;2023-05-10T02:40:55;95653.84;;;15.67;85.78
31357;BME280;60001;48.404;11.738;2023-05-10T02:42:31;95639.91;;;15.56;86.31
31357;BME280;60001;48.404;11.738;2023-05-10T02:44:06;95654.41;;;15.50;85.93
31357;BME280;60001;48.404;11.738;2023-05-10T02:45:40;95636.25;;;15.30;87.22
31357;BME280;60001;48.404;11.738;2023-05-10T02:47:12;95658.06;;;15.54;87.01
31357;BME280;60001;48.404;11.738;2023-05-10T02:48:44;95655.09;;;15.56;86.00
31357;BME280;60001;48.404;11.738;2023-05-10T02:50:16;95653.25;;;15.43;85.72
31357;BME280;60001;48.404;11.738;2023-05-10T02:51:51;95653.94;;;15.48;86.04
31357;BME280;60001;48.404;11.738;2023-05-10T02:53:31;95641.81;;;15.42;86.71
31357;BME280;60001;48.404;11.738;2023-05-10T02:55:05;95661.50;;;15.55;85.65
31357;BME280;60001;48.404;11.738;2023-05-10T02:56:43;95657.78;;;15.42;86.66
31357;BME280;60001;48.404;11.738;2023-05-10T02:58:18;95654.41;;;15.50;85.83
31357;BME280;60001;48.404;11.738;2023-05-10T02:59:51;95655.22;;;15.51;86.43
31357;BME280;60001;48.404;11.738;2023-05-10T03:01:22;95652.97;;;15.44;86.47
31357;BME280;60001;48.404;11.738;2023-05-10T03:02:53;95658.84;;;15.55;85.90
31357;BME280;60001;48.404;11.738;2023-05-10T03:04:25;95660.03;;;15.62;85.18
31357;BME280;60001;48.404;11.738;2023-05-10T03:05:56;95656.81;;;15.66;84.87
31357;BME280;60001;48.404;11.738;2023-05-10T03:07:30;95659.72;;;15.50;84.97
31357;BME280;60001;48.404;11.738;2023-05-10T03:09:02;95657.19;;;15.59;85.47
31357;BME280;60001;48.404;11.738;2023-05-10T03:10:49;95660.34;;;15.47;84.64
31357;BME280;60001;48.404;11.738;2023-05-10T03:12:33;95655.81;;;15.48;85.78
31357;BME280;60001;48.404;11.738;2023-05-10T03:14:21;95657.78;;;15.42;85.40
31357;BME280;60001;48.404;11.738;2023-05-10T03:16:06;95664.00;;;15.51;85.55
31357;BME280;60001;48.404;11.738;2023-05-10T03:17:47;95665.06;;;15.50;85.50
31357;BME280;60001;48.404;11.738;2023-05-10T03:19:27;95657.19;;;15.59;85.77
31357;BME280;60001;48.404;11.738;2023-05-10T03:21:03;95671.28;;;15.59;85.31
31357;BME280;60001;48.404;11.738;2023-05-10T03:22:42;95664.19;;;15.55;85.24
31357;BME280;60001;48.404;11.738;2023-05-10T03:24:20;95660.13;;;15.57;85.46
31357;BME280;60001;48.404;11.738;2023-05-10T03:25:53;95650.09;;;15.54;85.22
31357;BME280;60001;48.404;11.738;2023-05-10T03:27:28;95656.00;;;15.51;84.82
31357;BME280;60001;48.404;11.738;2023-05-10T03:29:02;95667.72;;;15.50;85.57
31357;BME280;60001;48.404;11.738;2023-05-10T03:30:37;95671.31;;;15.32;86.43
31357;BME280;60001;48.404;11.738;2023-05-10T03:32:08;95673.75;;;15.42;85.77
31357;BME280;60001;48.404;11.738;2023-05-10T03:33:46;95671.00;;;15.47;86.05
31357;BME280;60001;48.404;11.738;2023-05-10T03:35:18;95663.31;;;15.32;86.38
31357;BME280;60001;48.404;11.738;2023-05-10T03:36:50;95668.41;;;15.42;85.87
31357;BME280;60001;48.404;11.738;2023-05-10T03:38:23;95670.50;;;15.45;85.77
31357;BME280;60001;48.404;11.738;2023-05-10T03:39:55;95672.06;;;15.46;86.59
31357;BME280;60001;48.404;11.738;2023-05-10T03:41:25;95665.66;;;15.47;86.16
31357;BME280;60001;48.404;11.738;2023-05-10T03:42:57;95672.38;;;15.45;85.95
31357;BME280;60001;48.404;11.738;2023-05-10T03:44:29;95679.97;;;15.38;86.32
31357;BME280;60001;48.404;11.738;2023-05-10T03:46:01;95676.09;;;15.44;86.40
31357;BME280;60001;48.404;11.738;2023-05-10T03:47:32;95669.03;;;15.39;85.95
31357;BME280;60001;48.404;11.738;2023-05-10T03:49:04;95672.78;;;15.38;85.55
31357;BME280;60001;48.404;11.738;2023-05-10T03:50:36;95676.78;;;15.49;85.66
31357;BME280;60001;48.404;11.738;2023-05-10T03:52:07;95673.03;;;15.50;84.77
31357;BME280;60001;48.404;11.738;2023-05-10T03:53:43;95672.06;;;15.46;85.21
31357;BME280;60001;48.404;11.738;2023-05-10T03:55:15;95672.66;;;15.43;85.49
31357;BME280;60001;48.404;11.738;2023-05-10T03:56:46;95673.66;;;15.47;84.97
31357;BME280;60001;48.404;11.738;2023-05-10T03:58:18;95678.19;;;15.47;84.97
31357;BME280;60001;48.404;11.738;2023-05-10T03:59:49;95670.81;;;15.30;84.90
31357;BME280;60001;48.404;11.738;2023-05-10T04:01:21;95676.72;;;15.27;85.92
31357;BME280;60001;48.404;11.738;2023-05-10T04:02:52;95676.63;;;15.32;85.83
31357;BME280;60001;48.404;11.738;2023-05-10T04:04:23;95681.53;;;15.39;85.25
31357;BME280;60001;48.404;11.738;2023-05-10T04:05:59;95675.53;;;15.33;85.60
31357;BME280;60001;48.404;11.738;2023-05-10T04:07:30;95682.13;;;15.35;86.17
31357;BME280;60001;48.404;11.738;2023-05-10T04:09:03;95671.00;;;15.20;85.43
31357;BME280;60001;48.404;11.738;2023-05-10T04:10:35;95681.16;;;15.18;86.67
31357;BME280;60001;48.404;11.738;2023-05-10T04:12:07;95678.09;;;15.24;86.50
31357;BME280;60001;48.404;11.738;2023-05-10T04:13:41;95684.59;;;15.32;86.26
31357;BME280;60001;48.404;11.738;2023-05-10T04:15:13;95683.03;;;15.31;86.28
31357;BME280;60001;48.404;11.738;2023-05-10T04:16:45;95682.13;;;15.35;86.00
31357;BME280;60001;48.404;11.738;2023-05-10T04:18:16;95688.53;;;15.34;86.60
31357;BME280;60001;48.404;11.738;2023-05-10T04:19:48;95686.88;;;15.39;85.87
31357;BME280;60001;48.404;11.738;2023-05-10T04:21:23;95688.03;;;15.32;86.19
31357;BME280;60001;48.404;11.738;2023-05-10T04:22:55;95688.03;;;15.32;86.94
31357;BME280;60001;48.404;11.738;2023-05-10T04:24:28;95688.84;;;15.33;86.99
31357;BME280;60001;48.404;11.738;2023-05-10T04:26:00;95683.22;;;15.34;86.28
31357;BME280;60001;48.404;11.738;2023-05-10T04:27:31;95686.16;;;15.33;86.18
31357;BME280;60001;48.404;11.738;2023-05-10T04:29:02;95688.63;;;15.43;85.64
31357;BME280;60001;48.404;11.738;2023-05-10T04:30:33;95690.69;;;15.46;85.45
31357;BME280;60001;48.404;11.738;2023-05-10T04:32:05;95685.16;;;15.43;85.82
31357;BME280;60001;48.404;11.738;2023-05-10T04:33:37;95681.25;;;15.26;85.89
31357;BME280;60001;48.404;11.738;2023-05-10T04:35:09;95686.88;;;15.25;86.47
31357;BME280;60001;48.404;11.738;2023-05-10T04:36:41;95686.66;;;15.21;87.60
31357;BME280;60001;48.404;11.738;2023-05-10T04:38:13;95691.50;;;15.33;86.60
31357;BME280;60001;48.404;11.738;2023-05-10T04:39:45;95685.69;;;15.31;86.84
31357;BME280;60001;48.404;11.738;2023-05-10T04:41:17;95683.22;;;15.34;86.89
31357;BME280;60001;48.404;11.738;2023-05-10T04:42:49;95688.84;;;15.33;87.12
31357;BME280;60001;48.404;11.738;2023-05-10T04:44:20;95692.28;;;15.33;86.66
31357;BME280;60001;48.404;11.738;2023-05-10T04:45:52;95693.53;;;15.36;86.38
31357;BME280;60001;48.404;11.738;2023-05-10T04:47:27;95698.47;;;15.43;87.00
31357;BME280;60001;48.404;11.738;2023-05-10T04:48:59;95697.59;;;15.47;86.63
31357;BME280;60001;48.404;11.738;2023-05-10T04:50:32;95693.53;;;15.50;85.76
31357;BME280;60001;48.404;11.738;2023-05-10T04:52:04;95695.72;;;15.48;85.73
31357;BME280;60001;48.404;11.738;2023-05-10T04:53:36;95698.97;;;15.45;86.00
31357;BME280;60001;48.404;11.738;2023-05-10T04:55:09;95702.13;;;15.47;86.52
31357;BME280;60001;48.404;11.738;2023-05-10T04:56:41;95703.69;;;15.48;85.75
31357;BME280;60001;48.404;11.738;2023-05-10T04:58:13;95695.03;;;15.28;85.12
31357;BME280;60001;48.404;11.738;2023-05-10T04:59:45;95709.03;;;15.34;86.52
31357;BME280;60001;48.404;11.738;2023-05-10T05:01:16;95706.75;;;15.41;86.66
31357;BME280;60001;48.404;11.738;2023-05-10T05:02:48;95703.91;;;15.38;86.05
31357;BME280;60001;48.404;11.738;2023-05-10T05:04:22;95707.84;;;15.40;86.13
31357;BME280;60001;48.404;11.738;2023-05-10T05:05:54;95705.28;;;15.35;86.89
31357;BME280;60001;48.404;11.738;2023-05-10T05:07:26;95718.28;;;15.36;87.03
31357;BME280;60001;48.404;11.738;2023-05-10T05:08:57;95709.63;;;15.45;86.34
31357;BME280;60001;48.404;11.738;2023-05-10T05:10:30;95708.72;;;15.49;85.65
31357;BME280;60001;48.404;11.738;2023-05-10T05:12:03;95699.78;;;15.45;85.41
31357;BME280;60001;48.404;11.738;2023-05-10T05:13:35;95716.50;;;15.59;84.67
31357;BME280;60001;48.404;11.738;2023-05-10T05:15:07;95716.31;;;15.56;85.08
31357;BME280;60001;48.404;11.738;2023-05-10T05:16:40;95710.03;;;15.24;84.61
31357;BME280;60001;48.404;11.738;2023-05-10T05:18:11;95721.44;;;15.39;84.75
31357;BME280;60001;48.404;11.738;2023-05-10T05:19:43;95722.81;;;15.36;85.28
31357;BME280;60001;48.404;11.738;2023-05-10T05:21:15;95727.84;;;15.38;84.18
31357;BME280;60001;48.404;11.738;2023-05-10T05:22:47;95727.72;;;15.43;84.59
31357;BME280;60001;48.404;11.738;2023-05-10T05:24:18;95728.81;;;15.42;83.64
31357;BME280;60001;48.404;11.738;2023-05-10T05:25:51;95741.03;;;15.43;84.43
31357;BME280;60001;48.404;11.738;2023-05-10T05:27:23;95721.06;;;15.31;83.71
31357;BME280;60001;48.404;11.738;2023-05-10T05:28:56;95737.00;;;15.31;83.78
31357;BME280;60001;48.404;11.738;2023-05-10T05:30:28;95738.66;;;15.27;83.41
31357;BME280;60001;48.404;11.738;2023-05-10T05:32:00;95744.78;;;15.28;83.64
31357;BME280;60001;48.404;11.738;2023-05-10T05:33:31;95744.22;;;15.31;83.46
31357;BME280;60001;48.404;11.738;2023-05-10T05:35:04;95743.03;;;15.37;82.02
31357;BME280;60001;48.404;11.738;2023-05-10T05:36:36;95746.47;;;15.38;82.43
31357;BME280;60001;48.404;11.738;2023-05-10T05:38:09;95749.13;;;15.38;82.79
31357;BME280;60001;48.404;11.738;2023-05-10T05:39:40;95749.31;;;15.41;83.20
31357;BME280;60001;48.404;11.738;2023-05-10T05:41:14;95748.03;;;15.25;83.12
31357;BME280;60001;48.404;11.738;2023-05-10T05:42:45;95750.19;;;15.36;82.88
31357;BME280;60001;48.404;11.738;2023-05-10T05:44:17;95754.72;;;15.36;82.63
31357;BME280;60001;48.404;11.738;2023-05-10T05:45:49;95758.88;;;15.42;82.10
31357;BME280;60001;48.404;11.738;2023-05-10T05:47:21;95751.91;;;15.46;82.26
31357;BME280;60001;48.404;11.738;2023-05-10T05:48:51;95758.41;;;15.54;82.15
31357;BME280;60001;48.404;11.738;2023-05-10T05:50:23;95760.56;;;15.38;82.09
31357;BME280;60001;48.404;11.738;2023-05-10T05:51:58;95762.22;;;15.48;82.14
31357;BME280;60001;48.404;11.738;2023-05-10T05:53:30;95757.38;;;15.36;82.48
31357;BME280;60001;48.404;11.738;2023-05-10T05:55:03;95759.84;;;15.19;79.43
31357;BME280;60001;48.404;11.738;2023-05-10T05:56:36;95765.66;;;15.21;80.66
31357;BME280;60001;48.404;11.738;2023-05-10T05:58:08;95767.44;;;15.25;81.00
31357;BME280;60001;48.404;11.738;2023-05-10T05:59:40;95760.16;;;15.31;81.96
31357;BME280;60001;48.404;11.738;2023-05-10T06:01:14;95740.94;;;15.20;80.89
31357;BME280;60001;48.404;11.738;2023-05-10T06:02:45;95762.72;;;15.36;81.10
31357;BME280;60001;48.404;11.738;2023-05-10T06:04:17;95776.63;;;15.33;80.02
31357;BME280;60001;48.404;11.738;2023-05-10T06:05:49;95777.00;;;15.40;80.30
31357;BME280;60001;48.404;11.738;2023-05-10T06:07:21;95778.88;;;15.40;79.73
31357;BME280;60001;48.404;11.738;2023-05-10T06:08:53;95783.03;;;15.46;79.98
31357;BME280;60001;48.404;11.738;2023-05-10T06:10:25;95782.72;;;15.47;80.10
31357;BME280;60001;48.404;11.738;2023-05-10T06:11:58;95778.28;;;15.43;79.60
31357;BME280;60001;48.404;11.738;2023-05-10T06:13:30;95784.69;;;15.42;79.94
31357;BME280;60001;48.404;11.738;2023-05-10T06:15:03;95787.63;;;15.26;79.66
31357;BME280;60001;48.404;11.738;2023-05-10T06:16:35;95791.00;;;15.32;79.30
31357;BME280;60001;48.404;11.738;2023-05-10T06:18:07;95792.78;;;15.50;78.19
31357;BME280;60001;48.404;11.738;2023-05-10T06:19:38;95792.38;;;15.57;78.66
31357;BME280;60001;48.404;11.738;2023-05-10T06:21:10;95789.84;;;15.52;78.78
31357;BME280;60001;48.404;11.738;2023-05-10T06:22:42;95796.72;;;15.39;78.07
31357;BME280;60001;48.404;11.738;2023-05-10T06:24:14;95796.63;;;15.44;78.29
31357;BME280;60001;48.404;11.738;2023-05-10T06:25:45;95804.03;;;15.47;79.38
31357;BME280;60001;48.404;11.738;2023-05-10T06:27:18;95801.84;;;15.49;78.67
31357;BME280;60001;48.404;11.738;2023-05-10T06:28:50;95799.72;;;15.65;77.40
31357;BME280;60001;48.404;11.738;2023-05-10T06:30:23;95808.66;;;15.55;77.75
31357;BME280;60001;48.404;11.738;2023-05-10T06:31:58;95811.69;;;15.49;77.83
31357;BME280;60001;48.404;11.738;2023-05-10T06:33:30;95809.66;;;15.59;77.40
31357;BME280;60001;48.404;11.738;2023-05-10T06:35:02;95813.00;;;15.51;77.14
31357;BME280;60001;48.404;11.738;2023-05-10T06:36:33;95799.38;;;15.39;76.80
31357;BME280;60001;48.404;11.738;2023-05-10T06:38:05;95816.94;;;15.54;77.39
31357;BME280;60001;48.404;11.738;2023-05-10T06:39:37;95810.59;;;15.50;77.56
31357;BME280;60001;48.404;11.738;2023-05-10T06:41:09;95822.72;;;15.42;76.71
31357;BME280;60001;48.404;11.738;2023-05-10T06:42:42;95819.97;;;15.33;77.60
31357;BME280;60001;48.404;11.738;2023-05-10T06:44:15;95829.69;;;15.24;76.39
31357;BME280;60001;48.404;11.738;2023-05-10T06:45:47;95829.03;;;15.32;78.93
31357;BME280;60001;48.404;11.738;2023-05-10T06:47:19;95828.31;;;15.27;78.44
31357;BME280;60001;48.404;11.738;2023-05-10T06:48:51;95821.88;;;15.14;78.98
31357;BME280;60001;48.404;11.738;2023-05-10T06:50:22;95825.84;;;15.17;79.34
31357;BME280;60001;48.404;11.738;2023-05-10T06:51:55;95831.34;;;15.20;78.56
31357;BME280;60001;48.404;11.738;2023-05-10T06:53:27;95836.91;;;15.24;78.14
31357;BME280;60001;48.404;11.738;2023-05-10T06:54:59;95834.13;;;15.29;78.38
31357;BME280;60001;48.404;11.738;2023-05-10T06:56:30;95830.63;;;15.47;79.20
31357;BME280;60001;48.404;11.738;2023-05-10T06:58:03;95826.56;;;15.50;79.04
31357;BME280;60001;48.404;11.738;2023-05-10T06:59:35;95833.59;;;15.46;78.57
31357;BME280;60001;48.404;11.738;2023-05-10T07:01:07;95837.53;;;15.48;77.14
31357;BME280;60001;48.404;11.738;2023-05-10T07:02:39;95834.78;;;15.53;78.19
31357;BME280;60001;48.404;11.738;2023-05-10T07:04:11;95835.19;;;15.60;78.74
31357;BME280;60001;48.404;11.738;2023-05-10T07:05:43;95834.44;;;15.74;78.04
31357;BME280;60001;48.404;11.738;2023-05-10T07:07:15;95838.75;;;15.70;76.82
31357;BME280;60001;48.404;11.738;2023-05-10T07:08:46;95839.66;;;15.79;76.92
31357;BME280;60001;48.404;11.738;2023-05-10T07:10:18;95832.66;;;15.83;76.63
31357;BME280;60001;48.404;11.738;2023-05-10T07:11:50;95841.31;;;15.88;77.65
31357;BME280;60001;48.404;11.738;2023-05-10T07:13:23;95837.78;;;15.93;77.98
31357;BME280;60001;48.404;11.738;2023-05-10T07:14:57;95845.25;;;15.91;77.36
31357;BME280;60001;48.404;11.738;2023-05-10T07:16:29;95842.59;;;16.05;77.35
31357;BME280;60001;48.404;11.738;2023-05-10T07:18:01;95813.53;;;15.81;77.96
31357;BME280;60001;48.404;11.738;2023-05-10T07:19:34;95850.00;;;16.08;78.45
31357;BME280;60001;48.404;11.738;2023-05-10T07:21:06;95837.28;;;15.91;76.22
31357;BME280;60001;48.404;11.738;2023-05-10T07:22:38;95850.72;;;16.00;76.23
31357;BME280;60001;48.404;11.738;2023-05-10T07:24:10;95850.97;;;15.84;76.66
31357;BME280;60001;48.404;11.738;2023-05-10T07:25:41;95837.88;;;15.88;76.55
31357;BME280;60001;48.404;11.738;2023-05-10T07:27:15;95855.41;;;16.16;77.32
31357;BME280;60001;48.404;11.738;2023-05-10T07:28:48;95843.38;;;16.05;76.67
31357;BME280;60001;48.404;11.738;2023-05-10T07:30:20;95856.91;;;16.23;76.73
31357;BME280;60001;48.404;11.738;2023-05-10T07:31:52;95865.84;;;16.27;75.65
31357;BME280;60001;48.404;11.738;2023-05-10T07:33:24;95855.78;;;16.37;74.15
31357;BME280;60001;48.404;11.738;2023-05-10T07:34:55;95863.06;;;16.45;73.57
31357;BME280;60001;48.404;11.738;2023-05-10T07:36:27;95863.38;;;16.44;74.82
31357;BME280;60001;48.404;11.738;2023-05-10T07:37:59;95856.84;;;16.50;75.54
31357;BME280;60001;48.404;11.738;2023-05-10T07:39:31;95848.88;;;16.36;74.67
31357;BME280;60001;48.404;11.738;2023-05-10T07:41:03;95857.16;;;16.49;73.94
31357;BME280;60001;48.404;11.738;2023-05-10T07:42:34;95862.19;;;16.50;74.61
31357;BME280;60001;48.404;11.738;2023-05-10T07:44:08;95863.78;;;16.37;73.67
31357;BME280;60001;48.404;11.738;2023-05-10T07:45:39;95859.34;;;16.33;74.63
31357;BME280;60001;48.404;11.738;2023-05-10T07:47:12;95855.47;;;16.39;74.08
31357;BME280;60001;48.404;11.738;2023-05-10T07:48:43;95861.41;;;16.50;74.79
31357;BME280;60001;48.404;11.738;2023-05-10T07:50:15;95865.81;;;16.54;75.22
31357;BME280;60001;48.404;11.738;2023-05-10T07:51:47;95859.53;;;16.36;73.55
31357;BME280;60001;48.404;11.738;2023-05-10T07:53:19;95866.59;;;16.55;74.90
31357;BME280;60001;48.404;11.738;2023-05-10T07:54:51;95874.00;;;16.58;74.20
31357;BME280;60001;48.404;11.738;2023-05-10T07:56:24;95865.13;;;16.62;73.30
31357;BME280;60001;48.404;11.738;2023-05-10T07:57:57;95867.84;;;16.85;73.61
31357;BME280;60001;48.404;11.738;2023-05-10T07:59:32;95861.47;;;16.94;73.50
31357;BME280;60001;48.404;11.738;2023-05-10T08:01:04;95865.72;;;16.95;70.68
31357;BME280;60001;48.404;11.738;2023-05-10T08:02:36;95851.72;;;16.90;71.91
31357;BME280;60001;48.404;11.738;2023-05-10T08:04:08;95844.56;;;16.99;72.19
31357;BME280;60001;48.404;11.738;2023-05-10T08:05:40;95867.91;;;17.16;71.94
31357;BME280;60001;48.404;11.738;2023-05-10T08:07:12;95867.66;;;17.26;71.93
31357;BME280;60001;48.404;11.738;2023-05-10T08:08:44;95869.25;;;17.27;70.26
31357;BME280;60001;48.404;11.738;2023-05-10T08:10:19;95871.88;;;17.18;70.39
31357;BME280;60001;48.404;11.738;2023-05-10T08:11:51;95865.75;;;17.18;71.83